Airfield :
LOGIN :

Register | Disclaimer

   EN    FR    IT 

 










Legend :    VFR   Marginal VFR   IFR   Intensive IFR   Very Intensive IFR
Visi :
Ceiling :
>= 8 km
>= 3000ft
5 to 8 km
1000 to 3000 ft
1500m to 5 km
500 to 1000 ft
800 to 1500m
200 to 500 ft
< 800m
< 200 ft
Symbols :   Thunderstorms  Fog  Heavy snow  Heavy precipitations  Wind > 20 kt
SIGMETs :     Misc.  Thunderstorms  Icing  Turbulence  Mountain Waves  Volcanic Ashes







- Airport Elevation : 404 ft
- IATA code : WRO


EPWR - Wroclaw

CURRENT METAR :
  • 240430Z VRB02KT 9999 FEW025 BKN032 07/04 Q1027

EXPIRED METARs :
  • 240400Z VRB02KT 9999 BKN034 07/04 Q1027
  • 240330Z 01004KT 340V040 9999 BKN036 07/04 Q1027
  • 240300Z 35006KT 9999 BKN029 08/04 Q1027
  • 240230Z 35006KT 9999 BKN030 08/04 Q1027
  • 240200Z 36007KT 9999 OVC031 08/04 Q1027

TAF TAF EPWR
Valid from the 24 at 03:00 until the 25 at 03:00 UTC


240230Z 2403/2503 36007KT 9999 BKN030
TEMPO 2403/2406 4000 BR BKN014
PROB30 2403/2406 BKN008
TEMPO 2421/2424 -RA BKN012
No reported NOTAMs for that airfield.



MET'MAP, your aeronautical weather chart ! - Copyright ORBIFLY December 2007 - Disclaimer

ORBIFLY MET'MAP TEAM :

Programming & Development : Alexandra Zaïnal
Concept & Development : Baudouin d'Aumeries
Co-Development & Prog : Marc-Olivier Méhu
Technical & hardware support : Manuel Goepfert

Contact : metmap@orbifly.com




SOURCES & CREDITS :

   NOAA